createdAt,value
2022-11-04T00:00:15.635Z,11.53
2022-11-04T00:03:23.894Z,11.53
2022-11-04T00:06:32.168Z,11.58
2022-11-04T00:09:41.700Z,11.51
2022-11-04T00:12:48.898Z,11.52
2022-11-04T00:16:14.756Z,11.59
2022-11-04T00:19:23.935Z,11.53
2022-11-04T00:22:49.881Z,11.46
2022-11-04T00:26:16.825Z,11.44
2022-11-04T00:29:25.218Z,11.43
2022-11-04T00:32:53.248Z,11.33
2022-11-04T00:36:01.516Z,11.32
2022-11-04T00:39:09.988Z,11.18
2022-11-04T00:42:19.607Z,11.12
2022-11-04T00:45:27.774Z,11.03
2022-11-04T00:48:36.006Z,10.91
2022-11-04T00:51:44.279Z,10.83
2022-11-04T00:54:52.593Z,10.64
2022-11-04T00:58:02.384Z,10.50
2022-11-04T01:01:12.237Z,10.26
2022-11-04T01:04:20.583Z,10.20
2022-11-04T01:07:28.821Z,10.06
2022-11-04T01:10:44.521Z,10.00
2022-11-04T01:13:54.192Z,9.88
2022-11-04T01:17:02.749Z,9.74
2022-11-04T01:20:13.380Z,9.69
2022-11-04T01:23:21.921Z,9.62
2022-11-04T01:26:30.975Z,9.43
2022-11-04T01:29:40.866Z,9.32
2022-11-04T01:32:49.104Z,9.23
2022-11-04T01:36:00.916Z,9.18
2022-11-04T01:39:09.119Z,9.03
2022-11-04T01:42:17.326Z,9.07
2022-11-04T01:45:27.439Z,8.99
2022-11-04T01:48:36.425Z,8.95
2022-11-04T01:51:47.912Z,9.04
2022-11-04T01:55:01.015Z,9.04
2022-11-04T01:58:14.593Z,9.00
2022-11-04T02:01:24.575Z,8.95
2022-11-04T02:04:33.685Z,8.91
2022-11-04T02:07:42.083Z,8.82
2022-11-04T02:11:00.603Z,8.90
2022-11-04T02:14:07.786Z,8.90
2022-11-04T02:17:35.163Z,8.79
2022-11-04T02:21:11.153Z,8.74
2022-11-04T02:24:59.475Z,8.68
2022-11-04T02:28:47.235Z,8.69
2022-11-04T02:32:11.409Z,8.51
2022-11-04T02:35:29.657Z,8.56
2022-11-04T02:38:51.460Z,8.56
2022-11-04T02:42:10.487Z,8.63
2022-11-04T02:45:25.199Z,8.63
2022-11-04T02:48:42.080Z,8.62
2022-11-04T02:51:59.631Z,8.60
2022-11-04T02:55:18.642Z,8.53
2022-11-04T02:58:34.457Z,8.57
2022-11-04T03:01:49.478Z,8.59
2022-11-04T03:05:01.073Z,8.59
2022-11-04T03:08:17.518Z,8.60
2022-11-04T03:11:29.542Z,8.61
2022-11-04T03:14:43.411Z,8.47
2022-11-04T03:17:59.296Z,8.40
2022-11-04T03:21:14.008Z,8.41
2022-11-04T03:24:22.603Z,8.47
2022-11-04T03:27:42.686Z,8.47
2022-11-04T03:30:58.028Z,8.35
2022-11-04T03:34:06.211Z,8.39
2022-11-04T03:37:16.063Z,8.35
2022-11-04T03:40:24.753Z,8.49
2022-11-04T03:43:37.020Z,8.36
2022-11-04T03:46:45.298Z,8.43
2022-11-04T03:50:00.942Z,8.38
2022-11-04T03:53:16.936Z,8.46
2022-11-04T03:57:08.579Z,8.43
2022-11-04T04:00:20.977Z,8.42
2022-11-04T04:03:37.808Z,8.37
2022-11-04T04:06:48.626Z,8.38
2022-11-04T04:10:27.944Z,8.36
2022-11-04T04:13:45.205Z,8.41
2022-11-04T04:16:58.244Z,8.31
2022-11-04T04:20:13.721Z,8.36
2022-11-04T04:23:45.795Z,8.27
2022-11-04T04:27:16.031Z,8.27
2022-11-04T04:30:24.710Z,8.25
2022-11-04T04:33:32.970Z,8.25
2022-11-04T04:36:47.617Z,8.11
2022-11-04T04:40:32.356Z,8.30
2022-11-04T04:43:58.980Z,8.18
2022-11-04T04:47:10.188Z,8.08
2022-11-04T04:50:22.687Z,8.19
2022-11-04T04:53:30.967Z,8.19
2022-11-04T04:56:39.208Z,8.16
2022-11-04T04:59:48.697Z,8.28
2022-11-04T05:02:57.065Z,8.41
2022-11-04T05:06:05.460Z,8.37
2022-11-04T05:09:13.931Z,8.38
2022-11-04T05:12:22.505Z,8.37
2022-11-04T05:15:33.008Z,8.32
2022-11-04T05:18:41.442Z,8.42
2022-11-04T05:21:49.843Z,8.36
2022-11-04T05:24:58.003Z,8.36
2022-11-04T05:28:07.483Z,8.34
2022-11-04T05:31:18.147Z,8.37
2022-11-04T05:34:26.626Z,8.41
2022-11-04T05:37:35.175Z,8.28
2022-11-04T05:40:43.680Z,8.22
2022-11-04T05:43:53.461Z,8.18
2022-11-04T05:47:03.194Z,8.24
2022-11-04T05:50:11.673Z,8.24
2022-11-04T05:53:21.059Z,8.17
2022-11-04T05:56:30.276Z,8.24
2022-11-04T05:59:39.339Z,8.21
2022-11-04T06:02:51.143Z,8.24
2022-11-04T06:05:59.724Z,8.23
2022-11-04T06:09:10.253Z,8.20
2022-11-04T06:12:20.554Z,8.16
2022-11-04T06:15:36.483Z,7.96
2022-11-04T06:18:46.320Z,8.14
2022-11-04T06:21:54.760Z,8.12
2022-11-04T06:25:03.446Z,8.08
2022-11-04T06:28:11.836Z,8.04
2022-11-04T06:31:21.597Z,8.12
2022-11-04T06:34:31.599Z,8.04
2022-11-04T06:37:39.962Z,8.04
2022-11-04T06:40:48.390Z,7.91
2022-11-04T06:43:56.719Z,7.92
2022-11-04T06:47:05.806Z,7.71
2022-11-04T06:50:15.669Z,7.67
2022-11-04T06:53:24.076Z,7.81
2022-11-04T06:56:32.647Z,7.79
2022-11-04T06:59:41.063Z,7.74
2022-11-04T07:02:49.550Z,7.66
2022-11-04T07:06:02.179Z,7.50
2022-11-04T07:09:13.930Z,7.55
2022-11-04T07:12:24.767Z,7.64
2022-11-04T07:15:33.420Z,7.72
2022-11-04T07:18:41.732Z,7.64
2022-11-04T07:21:51.693Z,7.57
2022-11-04T07:25:00.200Z,7.64
2022-11-04T07:28:09.081Z,7.70
2022-11-04T07:31:18.134Z,7.61
2022-11-04T07:34:26.456Z,7.47
2022-11-04T07:37:36.303Z,7.69
2022-11-04T07:40:44.647Z,7.76
2022-11-04T07:43:53.561Z,7.82
2022-11-04T07:47:02.257Z,7.61
2022-11-04T07:50:11.842Z,7.25
2022-11-04T07:53:21.685Z,7.15
2022-11-04T07:56:30.019Z,7.09
2022-11-04T07:59:38.410Z,7.08
2022-11-04T08:02:47.017Z,7.28
2022-11-04T08:06:00.210Z,7.26
2022-11-04T08:09:10.435Z,7.38
2022-11-04T08:12:20.670Z,7.45
2022-11-04T08:15:29.619Z,7.34
2022-11-04T08:18:41.796Z,7.07
2022-11-04T08:21:50.175Z,6.88
2022-11-04T08:25:00.588Z,6.79
2022-11-04T08:28:08.924Z,6.75
2022-11-04T08:31:23.821Z,6.82
2022-11-04T08:34:32.132Z,6.85
2022-11-04T08:37:40.468Z,6.90
2022-11-04T08:40:50.056Z,7.06
2022-11-04T08:44:04.082Z,7.30
2022-11-04T08:47:12.626Z,7.19
2022-11-04T08:50:27.676Z,6.97
2022-11-04T08:53:35.954Z,6.90
2022-11-04T08:56:45.726Z,6.88
2022-11-04T08:59:54.228Z,6.90
2022-11-04T09:03:02.566Z,7.05
2022-11-04T09:06:14.837Z,7.08
2022-11-04T09:09:23.285Z,7.09
2022-11-04T09:12:33.322Z,7.05
2022-11-04T09:15:42.356Z,7.18
2022-11-04T09:18:51.000Z,7.36
2022-11-04T09:21:59.565Z,7.43
2022-11-04T09:25:08.751Z,7.58
2022-11-04T09:28:18.383Z,7.65
2022-11-04T09:31:30.431Z,7.74
2022-11-04T09:34:38.776Z,7.74
2022-11-04T09:37:47.480Z,7.71
2022-11-04T09:40:56.853Z,7.82
2022-11-04T09:44:24.192Z,7.78
2022-11-04T09:47:36.106Z,7.82
2022-11-04T09:50:51.619Z,8.01
2022-11-04T09:54:10.378Z,8.14
2022-11-04T09:57:21.686Z,7.96
2022-11-04T10:00:36.685Z,7.96
2022-11-04T10:04:07.565Z,8.03
2022-11-04T10:07:42.448Z,8.01
2022-11-04T10:11:05.503Z,7.99
2022-11-04T10:14:54.417Z,8.15
2022-11-04T10:18:22.133Z,8.35
2022-11-04T10:21:47.592Z,8.45
2022-11-04T10:25:09.928Z,8.39
2022-11-04T10:28:24.074Z,8.42
2022-11-04T10:31:33.163Z,8.40
2022-11-04T10:34:50.203Z,8.32
2022-11-04T10:38:12.501Z,7.98
2022-11-04T10:41:34.235Z,7.84
2022-11-04T10:44:43.167Z,7.92
2022-11-04T10:48:00.359Z,8.09
2022-11-04T10:51:10.081Z,8.05
2022-11-04T10:54:18.363Z,8.16
2022-11-04T10:57:27.527Z,8.10
2022-11-04T11:00:40.447Z,8.28
2022-11-04T11:03:49.215Z,8.25
2022-11-04T11:07:02.576Z,8.14
2022-11-04T11:10:20.818Z,8.12
2022-11-04T11:13:36.311Z,8.21
2022-11-04T11:16:45.808Z,7.94
2022-11-04T11:20:00.238Z,7.95
2022-11-04T11:23:38.223Z,8.04
2022-11-04T11:26:49.297Z,7.94
2022-11-04T11:29:57.559Z,7.77
2022-11-04T11:33:16.796Z,7.70
2022-11-04T11:36:27.936Z,7.69
2022-11-04T11:39:37.820Z,7.76
2022-11-04T11:42:46.123Z,7.65
2022-11-04T11:45:57.576Z,7.38
2022-11-04T11:49:07.288Z,7.59
2022-11-04T11:52:33.659Z,7.71
2022-11-04T11:55:50.951Z,7.47
2022-11-04T12:02:54.084Z,7.58
2022-11-04T12:06:32.637Z,7.40
2022-11-04T12:09:50.398Z,7.50
2022-11-04T12:13:23.764Z,7.54
2022-11-04T12:16:45.375Z,7.66
2022-11-04T12:20:22.625Z,7.52
2022-11-04T12:23:40.960Z,7.39
2022-11-04T12:27:06.367Z,7.49
2022-11-04T12:30:29.828Z,7.70
2022-11-04T12:33:50.618Z,7.93
2022-11-04T12:37:15.976Z,7.98
2022-11-04T12:40:30.441Z,7.97
2022-11-04T12:43:52.533Z,7.58
2022-11-04T12:47:20.047Z,7.53
2022-11-04T12:51:02.553Z,7.51
2022-11-04T12:54:36.338Z,7.56
2022-11-04T12:57:54.708Z,7.61
2022-11-04T13:01:15.467Z,7.50
2022-11-04T13:04:33.838Z,7.40
2022-11-04T13:07:50.651Z,7.40
2022-11-04T13:11:22.459Z,7.40
2022-11-04T13:14:42.082Z,6.98
2022-11-04T13:17:58.966Z,6.96
2022-11-04T13:21:14.921Z,7.00
2022-11-04T13:24:30.557Z,7.09
2022-11-04T13:27:45.119Z,7.17
2022-11-04T13:31:05.039Z,7.15
2022-11-04T13:34:28.568Z,7.01
2022-11-04T13:37:45.511Z,6.91
2022-11-04T13:41:18.750Z,6.99
2022-11-04T13:44:37.019Z,7.07
2022-11-04T13:47:53.227Z,6.97
2022-11-04T13:51:07.339Z,6.83
2022-11-04T13:54:31.484Z,6.88
2022-11-04T13:57:55.725Z,7.07
2022-11-04T14:01:26.757Z,7.23
2022-11-04T14:04:36.900Z,7.22
2022-11-04T14:08:13.384Z,7.13
2022-11-04T14:11:23.118Z,7.04
2022-11-04T14:14:31.451Z,7.21
2022-11-04T14:18:02.291Z,7.13
2022-11-04T14:21:13.642Z,7.22
2022-11-04T14:24:22.005Z,7.14
2022-11-04T14:27:42.216Z,7.20
2022-11-04T14:30:53.599Z,6.96
2022-11-04T14:34:02.127Z,6.85
2022-11-04T14:37:25.318Z,6.96
2022-11-04T14:40:52.223Z,7.22
2022-11-04T14:44:09.399Z,7.34
2022-11-04T14:47:22.335Z,7.30
2022-11-04T14:50:30.622Z,7.33
2022-11-04T14:53:39.818Z,7.30
2022-11-04T14:56:48.350Z,7.42
2022-11-04T14:59:58.163Z,7.46
2022-11-04T15:03:57.589Z,7.45
2022-11-04T15:06:54.944Z,7.46
2022-11-04T15:10:20.459Z,7.38
2022-11-04T15:13:28.851Z,7.37
2022-11-04T15:16:38.473Z,7.35
2022-11-04T15:19:52.616Z,7.27
2022-11-04T15:23:05.175Z,7.23
2022-11-04T15:26:29.727Z,7.11
2022-11-04T15:29:38.625Z,7.10
2022-11-04T15:32:57.894Z,6.88
2022-11-04T15:36:09.571Z,6.87
2022-11-04T15:39:23.133Z,6.68
2022-11-04T15:42:40.628Z,6.52
2022-11-04T15:45:55.787Z,6.31
2022-11-04T15:49:08.413Z,6.37
2022-11-04T15:52:22.086Z,6.39
2022-11-04T15:55:32.886Z,6.34
2022-11-04T15:58:43.041Z,6.29
2022-11-04T16:01:54.365Z,6.13
2022-11-04T16:05:22.719Z,6.18
2022-11-04T16:08:33.215Z,6.37
2022-11-04T16:11:41.888Z,6.38
2022-11-04T16:14:53.159Z,6.36
2022-11-04T16:18:02.816Z,6.26
2022-11-04T16:21:23.625Z,5.94
2022-11-04T16:24:35.707Z,5.81
2022-11-04T16:27:47.214Z,5.79
2022-11-04T16:31:00.425Z,5.75
2022-11-04T16:34:13.026Z,5.71
2022-11-04T16:37:29.132Z,5.64
2022-11-04T16:40:38.450Z,5.46
2022-11-04T16:43:50.340Z,5.31
2022-11-04T16:46:59.031Z,5.23
2022-11-04T16:50:16.268Z,5.19
2022-11-04T16:53:25.901Z,5.03
2022-11-04T16:56:35.962Z,4.98
2022-11-04T16:59:44.904Z,5.07
2022-11-04T17:02:53.322Z,5.02
2022-11-04T17:06:01.558Z,5.10
2022-11-04T17:09:21.990Z,4.98
2022-11-04T17:12:30.496Z,4.98
2022-11-04T17:15:40.542Z,5.01
2022-11-04T17:18:50.652Z,5.16
2022-11-04T17:22:00.446Z,5.22
2022-11-04T17:25:20.216Z,5.19
2022-11-04T17:28:28.856Z,5.24
2022-11-04T17:31:37.423Z,5.30
2022-11-04T17:34:46.511Z,5.06
2022-11-04T17:37:56.158Z,5.21
2022-11-04T17:41:23.544Z,5.23
2022-11-04T17:44:36.967Z,5.15
2022-11-04T17:47:46.490Z,5.13
2022-11-04T17:50:58.245Z,5.07
2022-11-04T17:54:07.241Z,5.14
2022-11-04T17:57:19.018Z,5.07
2022-11-04T18:00:29.774Z,5.17
2022-11-04T18:03:38.716Z,5.01
2022-11-04T18:07:54.748Z,5.04
2022-11-04T18:11:07.051Z,5.05
2022-11-04T18:14:18.630Z,5.03
2022-11-04T18:17:27.858Z,5.07
2022-11-04T18:20:36.286Z,5.04
2022-11-04T18:23:44.625Z,4.98
2022-11-04T18:26:53.490Z,5.05
2022-11-04T18:30:03.314Z,4.98
2022-11-04T18:33:12.018Z,4.83
2022-11-04T18:36:20.919Z,4.77
2022-11-04T18:39:29.404Z,4.77
2022-11-04T18:42:37.990Z,4.71
2022-11-04T18:45:47.743Z,4.60
2022-11-04T18:48:56.156Z,4.67
2022-11-04T18:52:04.787Z,4.76
2022-11-04T18:55:13.137Z,4.77
2022-11-04T18:58:22.490Z,4.83
2022-11-04T19:01:35.018Z,4.73
2022-11-04T19:04:43.658Z,4.78
2022-11-04T19:07:52.784Z,4.57
2022-11-04T19:11:02.115Z,4.57
2022-11-04T19:14:16.125Z,4.63
2022-11-04T19:17:26.158Z,4.54
2022-11-04T19:20:36.683Z,4.58
2022-11-04T19:23:45.911Z,4.44
2022-11-04T19:26:54.206Z,4.40
2022-11-04T19:30:02.901Z,4.30
2022-11-04T19:33:13.975Z,4.22
2022-11-04T19:36:25.775Z,4.08
2022-11-04T19:39:34.276Z,4.02
2022-11-04T19:43:00.096Z,4.00
2022-11-04T19:46:08.986Z,4.03
2022-11-04T19:49:18.843Z,4.02
2022-11-04T19:52:27.317Z,3.89
2022-11-04T19:55:36.633Z,3.84
2022-11-04T19:58:46.980Z,3.81
2022-11-04T20:01:55.653Z,3.78
2022-11-04T20:05:05.895Z,3.59
2022-11-04T20:08:14.279Z,3.41
2022-11-04T20:11:23.055Z,3.48
2022-11-04T20:14:30.392Z,3.59
2022-11-04T20:17:38.718Z,3.41
2022-11-04T20:20:48.558Z,3.27
2022-11-04T20:23:58.134Z,3.34
2022-11-04T20:27:06.495Z,3.31
2022-11-04T20:30:14.918Z,3.29
2022-11-04T20:33:23.253Z,3.17
2022-11-04T20:36:33.472Z,3.21
2022-11-04T20:39:42.690Z,3.29
2022-11-04T20:42:51.199Z,3.18
2022-11-04T20:46:06.117Z,3.06
2022-11-04T20:49:15.336Z,2.90
2022-11-04T20:52:26.251Z,2.73
2022-11-04T20:55:35.824Z,2.90
2022-11-04T20:58:47.869Z,2.96
2022-11-04T21:01:57.599Z,2.96
2022-11-04T21:05:07.319Z,2.96
2022-11-04T21:08:17.417Z,2.82
2022-11-04T21:11:31.680Z,2.73
2022-11-04T21:14:40.818Z,2.77
2022-11-04T21:17:48.952Z,2.83
2022-11-04T21:20:57.433Z,2.81
2022-11-04T21:24:08.619Z,3.02
2022-11-04T21:27:17.115Z,2.81
2022-11-04T21:30:30.388Z,2.80
2022-11-04T21:33:41.176Z,2.79
2022-11-04T21:36:53.409Z,2.81
2022-11-04T21:40:03.266Z,2.93
2022-11-04T21:43:12.212Z,2.83
2022-11-04T21:46:20.402Z,2.80
2022-11-04T21:49:28.940Z,2.72
2022-11-04T21:52:37.374Z,2.75
2022-11-04T21:55:47.720Z,2.65
2022-11-04T21:58:57.145Z,2.58
2022-11-04T22:02:05.569Z,2.57
2022-11-04T22:05:15.533Z,2.54
2022-11-04T22:08:23.921Z,2.44
2022-11-04T22:11:39.202Z,2.41
2022-11-04T22:14:48.277Z,2.75
2022-11-04T22:17:56.874Z,2.85
2022-11-04T22:21:09.356Z,2.61
2022-11-04T22:24:19.851Z,2.68
2022-11-04T22:27:29.607Z,2.67
2022-11-04T22:30:38.958Z,2.71
2022-11-04T22:33:47.263Z,2.75
2022-11-04T22:36:56.472Z,2.90
2022-11-04T22:40:06.171Z,2.97
2022-11-04T22:43:15.983Z,2.99
2022-11-04T22:46:27.163Z,3.07
2022-11-04T22:49:36.318Z,3.21
2022-11-04T22:52:44.901Z,3.27
2022-11-04T22:55:54.057Z,3.36
2022-11-04T22:59:05.516Z,3.37
2022-11-04T23:02:13.935Z,3.53
2022-11-04T23:05:22.502Z,3.60
2022-11-04T23:08:33.686Z,3.66
2022-11-04T23:12:00.043Z,3.73
2022-11-04T23:15:28.698Z,3.73
2022-11-04T23:18:43.088Z,3.90
2022-11-04T23:22:08.822Z,3.78
2022-11-04T23:25:17.299Z,3.96
2022-11-04T23:28:43.081Z,3.96
2022-11-04T23:31:52.856Z,3.99
2022-11-04T23:35:32.998Z,4.06
2022-11-04T23:38:42.586Z,3.97
2022-11-04T23:42:10.995Z,3.92
2022-11-04T23:45:36.852Z,3.98
2022-11-04T23:49:03.804Z,4.17
2022-11-04T23:52:29.500Z,4.28
2022-11-04T23:55:55.546Z,4.22
2022-11-04T23:59:21.703Z,4.27
